| time (UTC) | temp F | wind direction | speed MPH | gust MPH | rain 1hr in | rain 24hr in | rain mn in | humidity % | barometer mb |
| 20260504185443 | 77 | 142 | 1.0 | 2.0 | 0.00 | 0.00 | 0.00 | 32 | 1015.1 |
| 20260504184939 | 77 | 56 | 0.0 | 3.0 | 0.00 | 0.00 | 0.00 | 33 | 1015.0 |
| 20260504184435 | 77 | 27 | 1.0 | 4.0 | 0.00 | 0.00 | 0.00 | 34 | 1015.0 |
| 20260504183931 | 76 | 351 | 2.0 | 3.0 | 0.00 | 0.00 | 0.00 | 32 | 1015.2 |
| 20260504183428 | 77 | 143 | 2.0 | 3.0 | 0.00 | 0.00 | 0.00 | 32 | 1015.2 |
| 20260504182926 | 77 | 190 | 2.0 | 2.0 | 0.00 | 0.00 | 0.00 | 33 | 1015.5 |
| 20260504182423 | 77 | 343 | 2.0 | 3.0 | 0.00 | 0.00 | 0.00 | 34 | 1015.3 |
| 20260504181920 | 77 | 208 | 3.0 | 3.0 | 0.00 | 0.00 | 0.00 | 34 | 1015.6 |
| 20260504181417 | 76 | 148 | 0.0 | 2.0 | 0.00 | 0.00 | 0.00 | 34 | 1015.5 |
| 20260504180916 | 76 | 189 | 0.0 | 3.0 | 0.00 | 0.00 | 0.00 | 34 | 1015.6 |
| 20260504180414 | 76 | 261 | 1.0 | 2.0 | 0.00 | 0.00 | 0.00 | 32 | 1015.7 |
| 20260504175912 | 75 | 341 | 2.0 | 2.0 | 0.00 | 0.00 | 0.00 | 35 | 1015.6 |
| 20260504175409 | 75 | 171 | 1.0 | 3.0 | 0.00 | 0.00 | 0.00 | 35 | 1015.6 |
| 20260504174906 | 75 | 137 | 1.0 | 3.0 | 0.00 | 0.00 | 0.00 | 35 | 1015.6 |
| 20260504174404 | 75 | 131 | 1.0 | 3.0 | 0.00 | 0.00 | 0.00 | 35 | 1015.8 |
| 20260504173901 | 75 | 29 | 2.0 | 5.0 | 0.00 | 0.00 | 0.00 | 38 | 1015.7 |
| 20260504173357 | 74 | 152 | 0.0 | 4.0 | 0.00 | 0.00 | 0.00 | 36 | 1015.8 |
| 20260504172854 | 75 | 136 | 2.0 | 4.0 | 0.00 | 0.00 | 0.00 | 35 | 1015.9 |
| 20260504172351 | 75 | 189 | 2.0 | 2.0 | 0.00 | 0.00 | 0.00 | 36 | 1015.8 |
| 20260504171847 | 75 | 208 | 0.0 | 2.0 | 0.00 | 0.00 | 0.00 | 36 | 1015.9 |
| 20260504171344 | 75 | 6 | 1.0 | 3.0 | 0.00 | 0.00 | 0.00 | 34 | 1015.8 |
| 20260504170842 | 75 | 190 | 0.0 | 2.0 | 0.00 | 0.00 | 0.00 | 33 | 1015.8 |
| 20260504170338 | 75 | 182 | 0.0 | 4.0 | 0.00 | 0.00 | 0.00 | 33 | 1015.9 |
| 20260504160256 | 71 | 57 | 0.0 | 3.0 | 0.00 | 0.00 | 0.00 | 39 | 1017.0 |
| 20260504150722 | 64 | 340 | 0.0 | 2.0 | 0.00 | 0.00 | 0.00 | 46 | 1018.2 |
| 20260504150218 | 64 | 214 | 0.0 | 1.0 | 0.00 | 0.00 | 0.00 | 47 | 1018.1 |
| 20260504141148 | 58 | 348 | 1.0 | 4.0 | 0.00 | 0.00 | 0.00 | 51 | 1017.9 |
| 20260504140645 | 57 | 169 | 0.0 | 1.0 | 0.00 | 0.00 | 0.00 | 53 | 1017.8 |
| 20260504140140 | 57 | 129 | 0.0 | 0.0 | 0.00 | 0.00 | 0.00 | 61 | 1017.9 |
| 20260504130608 | 50 | 348 | 1.0 | 1.0 | 0.00 | 0.00 | 0.00 | 72 | 1017.8 |
| 20260504130105 | 49 | 158 | 0.0 | 1.0 | 0.00 | 0.00 | 0.00 | 73 | 1017.6 |
| 20260504110456 | 39 | 322 | 0.0 | 1.0 | 0.00 | 0.00 | 0.00 | 87 | 1017.2 |
| 20260504100418 | 41 | 261 | 1.0 | 2.0 | 0.00 | 0.00 | 0.00 | 84 | 1017.5 |
| 20260504081811 | 42 | 295 | 1.0 | 2.0 | 0.00 | 0.00 | 0.00 | 79 | 1017.1 |
| 20260504081308 | 42 | 309 | 2.0 | 2.0 | 0.00 | 0.00 | 0.00 | 79 | 1017.0 |
| 20260504080804 | 43 | 27 | 0.0 | 0.0 | 0.00 | 0.00 | 0.00 | 79 | 1017.0 |
| 20260504080301 | 43 | 323 | 1.0 | 2.0 | 0.00 | 0.00 | 0.00 | 79 | 1017.0 |
| 20260504070228 | 45 | 323 | 0.0 | 2.0 | 0.00 | 0.00 | 0.00 | 75 | 1016.7 |
| 20260504060149 | 46 | 331 | 2.0 | 2.0 | 0.00 | 0.00 | 0.00 | 72 | 1017.2 |
| 20260504050617 | 47 | 346 | 2.0 | 2.0 | 0.00 | 0.00 | 0.00 | 72 | 1017.4 |
| 20260504050114 | 47 | 323 | 1.0 | 2.0 | 0.00 | 0.00 | 0.00 | 72 | 1017.6 |
| 20260504045611 | 47 | 325 | 0.0 | 1.0 | 0.00 | 0.00 | 0.00 | 72 | 1017.4 |
| 20260504045106 | 47 | 32 | 0.0 | 1.0 | 0.00 | 0.00 | 0.00 | 71 | 1017.3 |
| 20260504044604 | 48 | 320 | 1.0 | 1.0 | 0.00 | 0.00 | 0.00 | 72 | 1017.1 |
| 20260504044100 | 48 | 21 | 0.0 | 1.0 | 0.00 | 0.00 | 0.00 | 69 | 1017.3 |
| 20260504043558 | 48 | 353 | 1.0 | 2.0 | 0.00 | 0.00 | 0.00 | 71 | 1017.1 |
| 20260504043055 | 48 | 312 | 2.0 | 2.0 | 0.00 | 0.00 | 0.00 | 71 | 1017.4 |
| 20260504042552 | 48 | 347 | 0.0 | 2.0 | 0.00 | 0.00 | 0.00 | 67 | 1017.2 |
| 20260504042049 | 48 | 344 | 1.0 | 3.0 | 0.00 | 0.00 | 0.00 | 68 | 1017.0 |
| 20260504041545 | 48 | 7 | 1.0 | 2.0 | 0.00 | 0.00 | 0.00 | 70 | 1017.2 |
| 20260504041041 | 48 | 348 | 0.0 | 1.0 | 0.00 | 0.00 | 0.00 | 69 | 1017.2 |
| 20260504040538 | 49 | 224 | 0.0 | 2.0 | 0.00 | 0.00 | 0.00 | 68 | 1017.0 |
| 20260504040035 | 49 | 340 | 2.0 | 2.0 | 0.00 | 0.00 | 0.00 | 67 | 1016.7 |
| 20260504035532 | 49 | 312 | 0.0 | 1.0 | 0.00 | 0.00 | 0.00 | 68 | 1017.0 |
| 20260504035028 | 49 | 338 | 1.0 | 2.0 | 0.00 | 0.00 | 0.00 | 66 | 1016.9 |
| 20260504034526 | 49 | 358 | 2.0 | 2.0 | 0.00 | 0.00 | 0.00 | 65 | 1016.9 |
| 20260504034023 | 49 | 322 | 0.0 | 1.0 | 0.00 | 0.00 | 0.00 | 66 | 1016.7 |
| 20260504033521 | 49 | 2 | 1.0 | 2.0 | 0.00 | 0.00 | 0.00 | 65 | 1016.9 |
| 20260504033018 | 49 | 44 | 0.0 | 2.0 | 0.00 | 0.00 | 0.00 | 67 | 1017.1 |
| 20260504032514 | 50 | 324 | 2.0 | 2.0 | 0.00 | 0.00 | 0.00 | 66 | 1017.1 |
| 20260504032011 | 50 | 340 | 0.0 | 1.0 | 0.00 | 0.00 | 0.00 | 67 | 1017.1 |
| 20260504031509 | 50 | 356 | 0.0 | 2.0 | 0.00 | 0.00 | 0.00 | 67 | 1017.2 |
| 20260504031005 | 50 | 16 | 0.0 | 1.0 | 0.00 | 0.00 | 0.00 | 66 | 1017.2 |
| 20260504030502 | 50 | 341 | 1.0 | 2.0 | 0.00 | 0.00 | 0.00 | 66 | 1017.2 |
| 20260504025958 | 50 | 330 | 2.0 | 2.0 | 0.00 | 0.00 | 0.00 | 65 | 1017.4 |
| 20260504025455 | 51 | 8 | 0.0 | 1.0 | 0.00 | 0.00 | 0.00 | 66 | 1017.1 |
| 20260504024952 | 51 | 309 | 0.0 | 1.0 | 0.00 | 0.00 | 0.00 | 65 | 1017.2 |
| 20260504024449 | 51 | 44 | 0.0 | 0.0 | 0.00 | 0.00 | 0.00 | 63 | 1017.2 |
| 20260504023946 | 51 | 332 | 2.0 | 2.0 | 0.00 | 0.00 | 0.00 | 63 | 1017.1 |
| 20260504023443 | 52 | 318 | 1.0 | 1.0 | 0.00 | 0.00 | 0.00 | 63 | 1017.2 |
| 20260504022938 | 52 | 24 | 0.0 | 1.0 | 0.00 | 0.00 | 0.00 | 64 | 1017.2 |
| 20260504022435 | 52 | 319 | 1.0 | 2.0 | 0.00 | 0.00 | 0.00 | 63 | 1016.9 |
| 20260504021931 | 53 | 29 | 1.0 | 1.0 | 0.00 | 0.00 | 0.00 | 62 | 1017.1 |
| 20260504021429 | 53 | 344 | 1.0 | 2.0 | 0.00 | 0.00 | 0.00 | 57 | 1017.2 |
| 20260504020926 | 53 | 334 | 2.0 | 2.0 | 0.00 | 0.00 | 0.00 | 58 | 1017.1 |
| 20260504020422 | 53 | 353 | 2.0 | 2.0 | 0.00 | 0.00 | 0.00 | 55 | 1016.9 |
| 20260504015919 | 53 | 344 | 0.0 | 2.0 | 0.00 | 0.00 | 0.00 | 57 | 1016.9 |
| 20260504015415 | 54 | 327 | 2.0 | 2.0 | 0.00 | 0.00 | 0.00 | 56 | 1016.6 |
| 20260504014911 | 54 | 31 | 2.0 | 3.0 | 0.00 | 0.00 | 0.00 | 54 | 1016.9 |
| 20260504014407 | 54 | 335 | 2.0 | 2.0 | 0.00 | 0.00 | 0.00 | 54 | 1016.6 |
| 20260504013904 | 54 | 323 | 1.0 | 2.0 | 0.00 | 0.00 | 0.00 | 55 | 1016.5 |
| 20260504013403 | 54 | 329 | 2.0 | 2.0 | 0.00 | 0.00 | 0.00 | 53 | 1016.2 |
| 20260504012859 | 55 | 325 | 2.0 | 2.0 | 0.00 | 0.00 | 0.00 | 52 | 1016.2 |
| 20260504012357 | 55 | 359 | 2.0 | 2.0 | 0.00 | 0.00 | 0.00 | 51 | 1016.0 |
| 20260504011854 | 55 | 0 | 2.0 | 2.0 | 0.00 | 0.00 | 0.00 | 51 | 1016.1 |
| 20260504011350 | 55 | 12 | 1.0 | 2.0 | 0.00 | 0.00 | 0.00 | 53 | 1016.1 |
| 20260504010846 | 55 | 345 | 2.0 | 2.0 | 0.00 | 0.00 | 0.00 | 53 | 1016.2 |
| 20260504010342 | 55 | 354 | 2.0 | 3.0 | 0.00 | 0.00 | 0.00 | 53 | 1016.2 |
| 20260504005839 | 55 | 340 | 2.0 | 3.0 | 0.00 | 0.00 | 0.00 | 53 | 1016.2 |
| 20260504005336 | 55 | 331 | 2.0 | 2.0 | 0.00 | 0.00 | 0.00 | 53 | 1016.1 |
| 20260504004833 | 55 | 327 | 1.0 | 2.0 | 0.00 | 0.00 | 0.00 | 54 | 1016.0 |
| 20260504004331 | 56 | 352 | 2.0 | 2.0 | 0.00 | 0.00 | 0.00 | 54 | 1016.2 |
| 20260504003827 | 56 | 347 | 0.0 | 1.0 | 0.00 | 0.00 | 0.00 | 54 | 1016.1 |
| 20260504003324 | 56 | 349 | 2.0 | 2.0 | 0.00 | 0.00 | 0.00 | 51 | 1016.0 |
| 20260504002821 | 57 | 339 | 2.0 | 2.0 | 0.00 | 0.00 | 0.00 | 50 | 1015.8 |
| 20260504002317 | 57 | 341 | 2.0 | 2.0 | 0.00 | 0.00 | 0.00 | 50 | 1015.6 |
| 20260504001815 | 58 | 324 | 0.0 | 2.0 | 0.00 | 0.00 | 0.00 | 51 | 1015.7 |
| 20260504001312 | 58 | 324 | 0.0 | 1.0 | 0.00 | 0.00 | 0.00 | 51 | 1015.5 |
| 20260504000809 | 59 | 323 | 2.0 | 2.0 | 0.00 | 0.00 | 0.00 | 51 | 1015.6 |
| 20260504000306 | 59 | 349 | 1.0 | 2.0 | 0.00 | 0.00 | 0.00 | 50 | 1015.5 |
| 20260503235804 | 60 | 330 | 2.0 | 2.0 | 0.00 | 0.00 | 0.00 | 49 | 1015.7 |
| 20260503235301 | 60 | 354 | 2.0 | 2.0 | 0.00 | 0.00 | 0.00 | 48 | 1015.4 |
| 20260503234758 | 60 | 344 | 2.0 | 2.0 | 0.00 | 0.00 | 0.00 | 48 | 1015.4 |
| 20260503234256 | 61 | 336 | 2.0 | 2.0 | 0.00 | 0.00 | 0.00 | 48 | 1015.3 |
| 20260503233754 | 61 | 349 | 1.0 | 2.0 | 0.00 | 0.00 | 0.00 | 49 | 1015.5 |
| 20260503233249 | 62 | 343 | 2.0 | 2.0 | 0.00 | 0.00 | 0.00 | 47 | 1015.4 |
| 20260503232746 | 62 | 359 | 2.0 | 2.0 | 0.00 | 0.00 | 0.00 | 45 | 1015.5 |
| 20260503232243 | 63 | 333 | 2.0 | 2.0 | 0.00 | 0.00 | 0.00 | 44 | 1015.3 |
| 20260503231741 | 64 | 308 | 2.0 | 2.0 | 0.00 | 0.00 | 0.00 | 43 | 1015.2 |
| 20260503231238 | 64 | 3 | 0.0 | 2.0 | 0.00 | 0.00 | 0.00 | 42 | 1015.4 |
| 20260503230734 | 65 | 326 | 2.0 | 2.0 | 0.00 | 0.00 | 0.00 | 41 | 1015.2 |
| 20260503230232 | 65 | 358 | 1.0 | 2.0 | 0.00 | 0.00 | 0.00 | 39 | 1015.3 |
| 20260503225729 | 66 | 357 | 1.0 | 2.0 | 0.00 | 0.00 | 0.00 | 39 | 1015.2 |
| 20260503225229 | 66 | 16 | 1.0 | 2.0 | 0.00 | 0.00 | 0.00 | 37 | 1015.3 |
| 20260503224726 | 66 | 3 | 0.0 | 1.0 | 0.00 | 0.00 | 0.00 | 35 | 1015.2 |
| 20260503224224 | 66 | 8 | 1.0 | 1.0 | 0.00 | 0.00 | 0.00 | 38 | 1015.2 |
| 20260503223721 | 66 | 324 | 0.0 | 2.0 | 0.00 | 0.00 | 0.00 | 35 | 1015.2 |
| 20260503223219 | 66 | 332 | 3.0 | 3.0 | 0.00 | 0.00 | 0.00 | 35 | 1015.4 |
| 20260503222715 | 66 | 138 | 0.0 | 1.0 | 0.00 | 0.00 | 0.00 | 33 | 1015.3 |
| 20260503222213 | 66 | 63 | 0.0 | 2.0 | 0.00 | 0.00 | 0.00 | 34 | 1015.4 |
| 20260503221711 | 67 | 248 | 0.0 | 2.0 | 0.00 | 0.00 | 0.00 | 35 | 1015.5 |
| 20260503221209 | 67 | 173 | 0.0 | 2.0 | 0.00 | 0.00 | 0.00 | 32 | 1015.5 |
| 20260503220705 | 67 | 180 | 0.0 | 1.0 | 0.00 | 0.00 | 0.00 | 32 | 1015.4 |
| 20260503220201 | 67 | 208 | 0.0 | 2.0 | 0.00 | 0.00 | 0.00 | 34 | 1015.4 |
| 20260503215658 | 67 | 185 | 0.0 | 1.0 | 0.00 | 0.00 | 0.00 | 32 | 1015.4 |
| 20260503215155 | 67 | 147 | 0.0 | 3.0 | 0.00 | 0.00 | 0.00 | 31 | 1015.7 |
| 20260503214654 | 68 | 318 | 4.0 | 4.0 | 0.00 | 0.00 | 0.00 | 29 | 1015.9 |
| 20260503214149 | 68 | 303 | 2.0 | 2.0 | 0.00 | 0.00 | 0.00 | 29 | 1015.7 |
| 20260503213649 | 69 | 204 | 2.0 | 2.0 | 0.00 | 0.00 | 0.00 | 31 | 1015.9 |
| 20260503213145 | 69 | 331 | 3.0 | 4.0 | 0.00 | 0.00 | 0.00 | 28 | 1015.9 |
| 20260503212643 | 69 | 173 | 0.0 | 2.0 | 0.00 | 0.00 | 0.00 | 28 | 1015.9 |
| 20260503212140 | 69 | 157 | 1.0 | 2.0 | 0.00 | 0.00 | 0.00 | 27 | 1016.0 |
| 20260503211638 | 70 | 153 | 0.0 | 4.0 | 0.00 | 0.00 | 0.00 | 27 | 1015.9 |
| 20260503211132 | 70 | 221 | 0.0 | 4.0 | 0.00 | 0.00 | 0.00 | 27 | 1016.3 |
| 20260503210629 | 70 | 297 | 2.0 | 2.0 | 0.00 | 0.00 | 0.00 | 25 | 1016.1 |
| 20260503210126 | 70 | 49 | 0.0 | 3.0 | 0.00 | 0.00 | 0.00 | 25 | 1016.1 |
| 20260503205622 | 70 | 347 | 0.0 | 1.0 | 0.00 | 0.00 | 0.00 | 26 | 1016.2 |
| 20260503205118 | 69 | 145 | 0.0 | 3.0 | 0.00 | 0.00 | 0.00 | 26 | 1016.3 |
| 20260503204615 | 69 | 76 | 2.0 | 3.0 | 0.00 | 0.00 | 0.00 | 26 | 1016.3 |
| 20260503204113 | 70 | 15 | 1.0 | 2.0 | 0.00 | 0.00 | 0.00 | 24 | 1016.4 |
| 20260503203610 | 69 | 186 | 0.0 | 4.0 | 0.00 | 0.00 | 0.00 | 26 | 1016.3 |
| 20260503203107 | 68 | 221 | 0.0 | 4.0 | 0.00 | 0.00 | 0.00 | 25 | 1016.3 |
| 20260503202604 | 68 | 73 | 2.0 | 2.0 | 0.00 | 0.00 | 0.00 | 26 | 1016.3 |
| 20260503202102 | 68 | 152 | 1.0 | 2.0 | 0.00 | 0.00 | 0.00 | 26 | 1016.4 |
| 20260503201600 | 68 | 35 | 1.0 | 3.0 | 0.00 | 0.00 | 0.00 | 26 | 1016.7 |
| 20260503201057 | 69 | 126 | 3.0 | 4.0 | 0.00 | 0.00 | 0.00 | 26 | 1016.6 |
| 20260503200553 | 69 | 157 | 2.0 | 5.0 | 0.00 | 0.00 | 0.00 | 25 | 1016.6 |
| 20260503200050 | 71 | 323 | 5.0 | 5.0 | 0.00 | 0.00 | 0.00 | 27 | 1016.9 |
| 20260503195547 | 71 | 259 | 1.0 | 2.0 | 0.00 | 0.00 | 0.00 | 28 | 1017.0 |
| 20260503195044 | 70 | 354 | 1.0 | 3.0 | 0.00 | 0.00 | 0.00 | 26 | 1017.2 |
| 20260503194541 | 69 | 89 | 0.0 | 2.0 | 0.00 | 0.00 | 0.00 | 28 | 1017.2 |
| 20260503194041 | 69 | 194 | 2.0 | 3.0 | 0.00 | 0.00 | 0.00 | 29 | 1017.2 |
| 20260503193538 | 68 | 24 | 1.0 | 2.0 | 0.00 | 0.00 | 0.00 | 30 | 1017.3 |
| 20260503193033 | 67 | 98 | 1.0 | 3.0 | 0.00 | 0.00 | 0.00 | 29 | 1017.3 |
| 20260503192529 | 67 | 131 | 2.0 | 3.0 | 0.00 | 0.00 | 0.00 | 30 | 1017.1 |
| 20260503192025 | 68 | 146 | 1.0 | 2.0 | 0.00 | 0.00 | 0.00 | 29 | 1017.4 |
| 20260503191522 | 66 | 16 | 0.0 | 3.0 | 0.00 | 0.00 | 0.00 | 31 | 1017.3 |
| 20260503191019 | 66 | 168 | 0.0 | 4.0 | 0.00 | 0.00 | 0.00 | 29 | 1017.5 |
| 20260503190516 | 66 | 157 | 4.0 | 5.0 | 0.00 | 0.00 | 0.00 | 28 | 1017.5 |
| 20260503190014 | 66 | 329 | 2.0 | 4.0 | 0.00 | 0.00 | 0.00 | 31 | 1017.6 |